Time;durP1;ratioP1;P1;durP2;ratioP2;P2;SDS_P1;SDS_P2;PMS_P1;PMS_P2;Temp;Humidity;BMP_temperature;BMP_pressure;BME280_temperature;BME280_humidity;BME280_pressure;Samples;Min_cycle;Max_cycle;Signal;HPM_P1;HPM_P2
2022/01/30 00:01:42;;;;;;;0.73;0.60;;;7.50;99.90;;;;;;4971663;28;20126;-69
2022/01/30 00:04:08;;;;;;;1.13;0.80;;;7.50;99.90;;;;;;4973231;28;20102;-69
2022/01/30 00:06:34;;;;;;;0.80;0.80;;;7.50;99.90;;;;;;4968279;28;20511;-69
2022/01/30 00:08:59;;;;;;;0.80;0.73;;;7.50;99.90;;;;;;4974938;28;20063;-69
2022/01/30 00:11:31;;;;;;;1.40;1.00;;;7.40;99.90;;;;;;4968484;28;20030;-71
2022/01/30 00:13:58;;;;;;;1.13;0.90;;;7.40;99.90;;;;;;4971392;28;20041;-69
2022/01/30 00:16:25;;;;;;;1.13;1.00;;;7.40;99.90;;;;;;4966781;28;20058;-69
2022/01/30 00:21:43;;;;;;;0.90;0.90;;;7.40;99.90;;;;;;4966870;28;20754;-70
2022/01/30 00:24:25;;;;;;;0.63;0.60;;;7.40;99.90;;;;;;4970851;28;20019;-70
2022/01/30 00:26:51;;;;;;;1.05;0.80;;;7.40;99.90;;;;;;4973181;28;20029;-69
2022/01/30 00:29:16;;;;;;;2.67;0.90;;;7.30;99.90;;;;;;4971051;28;20030;-69
2022/01/30 00:31:43;;;;;;;0.73;0.73;;;7.30;99.90;;;;;;4969772;28;20093;-70
2022/01/30 00:34:08;;;;;;;1.38;0.95;;;7.30;99.90;;;;;;4972673;28;20050;-69
2022/01/30 00:36:34;;;;;;;1.20;0.87;;;7.30;99.90;;;;;;4965334;28;21098;-70
2022/01/30 00:39:00;;;;;;;2.13;0.97;;;7.30;99.90;;;;;;4967329;28;20026;-69
2022/01/30 00:41:26;;;;;;;1.20;1.10;;;7.20;99.90;;;;;;4968897;28;20030;-70
2022/01/30 00:43:53;;;;;;;2.58;1.10;;;7.20;99.90;;;;;;4970310;28;20089;-70
2022/01/30 00:46:19;;;;;;;0.80;0.80;;;7.30;99.90;;;;;;4971553;28;20448;-70
2022/01/30 00:48:44;;;;;;;1.70;1.23;;;7.30;99.90;;;;;;4967309;28;20030;-71
2022/01/30 00:51:10;;;;;;;1.03;1.00;;;7.40;99.90;;;;;;4973250;28;20034;-70
2022/01/30 00:53:36;;;;;;;1.30;1.00;;;7.40;99.90;;;;;;4962606;28;20022;-70
2022/01/30 00:56:02;;;;;;;1.43;1.33;;;7.50;99.90;;;;;;4967998;28;20053;-70
2022/01/30 00:58:28;;;;;;;1.48;0.88;;;7.40;99.90;;;;;;4965586;28;20109;-71
2022/01/30 01:00:54;;;;;;;1.30;0.87;;;7.50;99.90;;;;;;4972218;28;20076;-72
2022/01/30 01:03:19;;;;;;;1.40;0.90;;;7.50;99.90;;;;;;4968043;28;21526;-70
2022/01/30 01:05:45;;;;;;;0.90;0.80;;;7.50;99.90;;;;;;4970409;28;20069;-69
2022/01/30 01:08:17;;;;;;;1.30;1.00;;;7.50;99.90;;;;;;4971465;28;20144;-70
2022/01/30 01:10:55;;;;;;;1.23;0.82;;;7.50;99.90;;;;;;4966068;28;20018;-68
2022/01/30 01:24:04;;;;;;;0.97;0.83;;;7.70;99.90;;;;;;4969445;28;20532;-72
2022/01/30 01:26:31;;;;;;;1.25;1.13;;;7.80;99.90;;;;;;4963104;28;20132;-70
2022/01/30 01:28:57;;;;;;;;;;;7.80;99.90;;;;;;4967043;28;20045;-69
2022/01/30 01:31:23;;;;;;;1.38;0.93;;;7.80;99.90;;;;;;4963738;28;19906;-75
2022/01/30 01:36:35;;;;;;;1.27;1.00;;;7.80;99.90;;;;;;4965086;28;20112;-74
2022/01/30 01:39:01;;;;;;;1.07;1.03;;;7.90;99.90;;;;;;4972437;28;20026;-69
2022/01/30 01:41:29;;;;;;;1.20;0.70;;;7.90;99.90;;;;;;4968577;28;20538;-69
2022/01/30 01:43:54;;;;;;;0.82;0.70;;;7.90;99.90;;;;;;4972741;28;20019;-71
2022/01/30 01:46:28;;;;;;;1.50;0.93;;;7.90;99.90;;;;;;4968534;28;20065;-69
2022/01/30 01:48:53;;;;;;;0.82;0.80;;;7.90;99.90;;;;;;4967611;28;20482;-70
2022/01/30 01:51:30;;;;;;;1.30;1.10;;;7.90;99.90;;;;;;4968554;28;20023;-70
2022/01/30 01:53:57;;;;;;;1.57;0.90;;;7.90;99.90;;;;;;4967790;28;20269;-72
2022/01/30 01:56:24;;;;;;;0.80;0.65;;;7.90;99.90;;;;;;4965607;28;20026;-69
2022/01/30 01:58:50;;;;;;;3.83;1.13;;;8.00;99.90;;;;;;4971459;28;20138;-71
2022/01/30 02:01:16;;;;;;;1.63;1.30;;;8.00;99.90;;;;;;4969643;28;20105;-69
2022/01/30 02:03:43;;;;;;;1.95;1.15;;;8.00;99.90;;;;;;4966556;28;20077;-69
2022/01/30 02:06:13;;;;;;;1.27;1.02;;;8.00;99.90;;;;;;4970256;28;20480;-74
2022/01/30 02:08:42;;;;;;;2.13;1.00;;;7.90;99.90;;;;;;4966297;28;20007;-70
2022/01/30 02:11:45;;;;;;;0.95;0.90;;;7.90;99.90;;;;;;4969892;28;20634;-69
2022/01/30 02:14:23;;;;;;;1.77;1.23;;;7.90;99.90;;;;;;4967554;28;20133;-69
2022/01/30 02:25:25;;;;;;;1.08;0.95;;;8.00;99.90;;;;;;4971376;28;20088;-69
2022/01/30 02:27:48;;;;;;;1.50;1.08;;;8.00;99.90;;;;;;4970683;28;20037;-69
2022/01/30 02:30:20;;;;;;;1.93;0.97;;;8.00;99.90;;;;;;4970316;28;20026;-71
2022/01/30 02:32:48;;;;;;;2.70;0.90;;;8.00;99.90;;;;;;4970346;28;20274;-71
2022/01/30 02:35:14;;;;;;;1.85;1.02;;;8.00;99.90;;;;;;4969885;28;20036;-69
2022/01/30 02:37:39;;;;;;;1.20;1.07;;;8.10;99.90;;;;;;4967411;28;20030;-71
2022/01/30 02:40:10;;;;;;;1.07;0.93;;;8.10;99.90;;;;;;4976194;28;20277;-69
2022/01/30 02:42:42;;;;;;;1.95;1.00;;;8.10;99.90;;;;;;4968869;28;20671;-70
2022/01/30 02:45:11;;;;;;;1.83;0.70;;;8.10;99.90;;;;;;4975283;28;20014;-70
2022/01/30 02:50:20;;;;;;;2.13;0.93;;;8.10;99.90;;;;;;4975904;28;20039;-70
2022/01/30 02:52:55;;;;;;;0.98;0.90;;;8.10;99.90;;;;;;4969249;28;20030;-69
2022/01/30 02:55:21;;;;;;;0.60;0.60;;;8.10;99.90;;;;;;4969533;28;20127;-69
2022/01/30 02:57:47;;;;;;;1.90;0.93;;;8.10;99.90;;;;;;4971185;28;20970;-69
2022/01/30 03:00:13;;;;;;;0.70;0.70;;;8.10;99.90;;;;;;4976816;28;20030;-69
2022/01/30 03:02:39;;;;;;;1.02;0.93;;;8.10;99.90;;;;;;4969465;28;21351;-69
2022/01/30 03:05:05;;;;;;;0.73;0.73;;;8.10;99.90;;;;;;4970724;28;20022;-70
2022/01/30 03:07:32;;;;;;;2.80;0.80;;;8.10;99.90;;;;;;4970291;28;20027;-68
2022/01/30 03:09:57;;;;;;;1.85;0.93;;;8.10;99.90;;;;;;4974591;28;20027;-70
2022/01/30 03:12:23;;;;;;;0.93;0.80;;;8.10;99.90;;;;;;4968535;28;20504;-70
2022/01/30 03:14:49;;;;;;;0.73;0.70;;;8.10;99.90;;;;;;4971216;28;20411;-69
2022/01/30 03:17:15;;;;;;;0.60;0.60;;;8.10;99.90;;;;;;4967984;28;20073;-69
2022/01/30 03:19:40;;;;;;;0.80;0.80;;;8.10;99.90;;;;;;4971617;28;20022;-70
2022/01/30 03:22:08;;;;;;;1.00;0.80;;;8.10;99.90;;;;;;4967674;28;20042;-70
2022/01/30 03:24:36;;;;;;;0.63;0.63;;;8.00;99.90;;;;;;4970686;28;20022;-71
2022/01/30 03:27:08;;;;;;;0.75;0.75;;;8.10;99.90;;;;;;4972399;28;20015;-69
2022/01/30 03:29:34;;;;;;;0.82;0.75;;;8.10;99.90;;;;;;4969109;28;20065;-70
2022/01/30 03:32:00;;;;;;;0.40;0.40;;;8.10;99.90;;;;;;4973293;28;20523;-70
2022/01/30 03:34:26;;;;;;;1.13;0.60;;;8.10;99.90;;;;;;4963239;28;20031;-72
2022/01/30 03:36:52;;;;;;;0.80;0.75;;;8.10;99.90;;;;;;4972522;28;20041;-72
2022/01/30 03:39:18;;;;;;;0.70;0.70;;;8.10;99.90;;;;;;4973651;28;20053;-70
2022/01/30 03:41:44;;;;;;;1.30;0.77;;;8.10;99.90;;;;;;4966208;28;20023;-71
2022/01/30 03:44:09;;;;;;;0.87;0.70;;;8.10;99.90;;;;;;4973379;28;20014;-69
2022/01/30 03:46:35;;;;;;;1.00;0.67;;;8.10;99.90;;;;;;4964229;28;20149;-70
2022/01/30 03:49:01;;;;;;;0.60;0.60;;;8.10;99.90;;;;;;4970447;28;20030;-71
2022/01/30 03:51:26;;;;;;;0.70;0.70;;;8.10;99.90;;;;;;4969676;28;20022;-72
2022/01/30 03:53:52;;;;;;;0.93;0.83;;;8.10;99.90;;;;;;4969112;28;20057;-74
2022/01/30 03:56:18;;;;;;;0.80;0.80;;;8.10;99.90;;;;;;4971699;28;20392;-70
2022/01/30 03:58:44;;;;;;;1.00;0.80;;;8.10;99.90;;;;;;4965902;28;20015;-70
2022/01/30 04:01:10;;;;;;;0.90;0.60;;;8.10;99.90;;;;;;4969802;28;20069;-70
2022/01/30 04:03:36;;;;;;;1.03;0.90;;;8.10;99.90;;;;;;4961606;28;20451;-70
2022/01/30 04:06:04;;;;;;;1.65;0.50;;;8.10;99.90;;;;;;4967556;28;20038;-71
2022/01/30 04:08:30;;;;;;;0.70;0.70;;;8.10;99.90;;;;;;4967434;28;20046;-73
2022/01/30 04:10:56;;;;;;;1.00;0.60;;;8.10;99.90;;;;;;4969467;28;20106;-73
2022/01/30 04:13:22;;;;;;;1.10;0.70;;;8.20;99.90;;;;;;4969793;28;20034;-71
2022/01/30 04:15:48;;;;;;;1.08;0.50;;;8.10;99.90;;;;;;4972119;28;20029;-73
2022/01/30 04:18:14;;;;;;;2.65;0.88;;;8.10;99.90;;;;;;4971994;28;20026;-72
2022/01/30 04:20:40;;;;;;;0.50;0.50;;;8.10;99.90;;;;;;4970849;28;20027;-71
2022/01/30 04:23:06;;;;;;;0.57;0.40;;;8.10;99.90;;;;;;4968693;28;20329;-72
2022/01/30 04:25:31;;;;;;;0.43;0.43;;;8.00;99.90;;;;;;4962867;28;20034;-73
2022/01/30 04:27:57;;;;;;;0.60;0.57;;;8.00;99.90;;;;;;4973466;28;20022;-70
2022/01/30 04:30:23;;;;;;;0.40;0.40;;;7.90;99.90;;;;;;4972672;28;20169;-72
2022/01/30 04:32:49;;;;;;;0.20;0.20;;;7.90;99.90;;;;;;4967996;28;21551;-71
2022/01/30 04:35:22;;;;;;;0.40;0.40;;;7.90;99.90;;;;;;4971314;28;20039;-71
2022/01/30 05:05:04;;;;;;;1.25;0.20;;;7.80;99.90;;;;;;4954094;28;20038;-69
2022/01/30 05:07:33;;;;;;;0.30;0.30;;;7.70;99.90;;;;;;4967995;28;20039;-69
2022/01/30 05:09:59;;;;;;;0.30;0.20;;;7.70;99.90;;;;;;4973454;28;20022;-70
2022/01/30 05:12:31;;;;;;;0.77;0.20;;;7.70;99.90;;;;;;4971123;28;20105;-71
2022/01/30 05:14:57;;;;;;;0.28;0.28;;;7.70;99.90;;;;;;4972761;28;20506;-69
2022/01/30 05:17:23;;;;;;;1.77;0.28;;;7.70;99.90;;;;;;4971458;28;20029;-69
2022/01/30 05:19:49;;;;;;;1.02;0.20;;;7.60;99.90;;;;;;4964310;28;20488;-70
2022/01/30 05:22:15;;;;;;;0.20;0.13;;;7.70;99.90;;;;;;4970760;28;20069;-70
2022/01/30 05:24:40;;;;;;;0.20;0.10;;;7.60;99.90;;;;;;4960789;28;20027;-69
2022/01/30 05:27:07;;;;;;;0.10;0.10;;;7.70;99.90;;;;;;4969275;28;20026;-71
2022/01/30 05:29:33;;;;;;;0.45;0.20;;;7.70;99.90;;;;;;4968442;28;20139;-69
2022/01/30 05:31:59;;;;;;;0.20;0.20;;;7.60;99.90;;;;;;4972992;28;20528;-69
2022/01/30 05:34:25;;;;;;;0.10;0.10;;;7.70;99.90;;;;;;4967505;28;20037;-69
2022/01/30 05:36:52;;;;;;;0.00;0.00;;;7.70;99.90;;;;;;4965286;28;20035;-70
2022/01/30 05:39:18;;;;;;;0.22;0.20;;;7.70;99.90;;;;;;4965683;28;20022;-70
2022/01/30 05:41:44;;;;;;;0.90;0.50;;;7.70;99.90;;;;;;4964624;28;20022;-74
2022/01/30 05:44:13;;;;;;;0.80;0.40;;;7.60;99.90;;;;;;4963522;28;20509;-70
2022/01/30 05:46:47;;;;;;;0.30;0.28;;;7.60;99.90;;;;;;4966012;28;20353;-69
2022/01/30 05:49:14;;;;;;;0.70;0.70;;;7.60;99.90;;;;;;4968624;28;20026;-69
2022/01/30 05:51:41;;;;;;;0.82;0.32;;;7.60;99.90;;;;;;4971928;28;20084;-70
2022/01/30 05:54:07;;;;;;;1.60;0.30;;;7.60;99.90;;;;;;4964565;28;20051;-70
2022/01/30 05:56:34;;;;;;;0.55;0.40;;;7.50;99.90;;;;;;4964053;28;20031;-69
2022/01/30 05:59:00;;;;;;;2.72;0.70;;;7.40;99.90;;;;;;4970156;28;20038;-69
2022/01/30 06:01:26;;;;;;;2.00;0.57;;;7.40;99.90;;;;;;4971385;28;20022;-71
2022/01/30 06:03:51;;;;;;;0.77;0.50;;;7.30;99.10;;;;;;4969393;28;20488;-70
2022/01/30 06:06:17;;;;;;;4.07;0.60;;;7.20;98.10;;;;;;4963878;28;20060;-69
2022/01/30 06:08:46;;;;;;;2.40;0.70;;;7.10;98.10;;;;;;4970131;28;20097;-69
2022/01/30 06:11:13;;;;;;;2.80;0.93;;;7.10;98.00;;;;;;4960935;28;20031;-69
2022/01/30 06:13:39;;;;;;;1.92;0.70;;;7.00;97.80;;;;;;4971416;28;20433;-70
2022/01/30 06:16:05;;;;;;;2.30;0.97;;;7.00;96.00;;;;;;4962446;28;20030;-70
2022/01/30 06:18:31;;;;;;;1.42;0.75;;;7.00;95.70;;;;;;4971564;28;20026;-69
2022/01/30 06:20:57;;;;;;;3.40;0.90;;;7.00;94.80;;;;;;4969033;28;20073;-69
2022/01/30 06:23:26;;;;;;;3.60;1.63;;;7.00;94.10;;;;;;4964772;28;20031;-71
2022/01/30 06:25:55;;;;;;;5.03;0.98;;;7.00;93.60;;;;;;4966091;28;20023;-72
2022/01/30 06:28:21;;;;;;;2.47;1.02;;;7.00;93.80;;;;;;4967186;28;20034;-70
2022/01/30 06:30:48;;;;;;;1.83;1.10;;;7.00;93.90;;;;;;4967465;28;20380;-69
2022/01/30 06:33:14;;;;;;;4.65;1.10;;;7.10;93.80;;;;;;4962262;28;20262;-71
2022/01/30 06:35:41;;;;;;;;;;;7.10;94.00;;;;;;4969232;28;20150;-69
2022/01/30 06:38:07;;;;;;;5.13;1.27;;;7.10;94.60;;;;;;4962771;28;19950;-69
2022/01/30 06:40:33;;;;;;;1.17;0.60;;;7.20;95.00;;;;;;4963836;28;20058;-67
2022/01/30 06:42:58;;;;;;;3.58;0.93;;;7.40;95.70;;;;;;4967552;28;20053;-68
2022/01/30 06:45:25;;;;;;;1.73;1.10;;;7.40;95.00;;;;;;4966086;28;20026;-71
2022/01/30 06:47:51;;;;;;;2.80;0.98;;;7.50;95.20;;;;;;4966024;28;20023;-69
2022/01/30 06:50:18;;;;;;;2.00;1.10;;;7.80;94.80;;;;;;4963769;28;20026;-68
2022/01/30 06:52:43;;;;;;;2.92;1.10;;;8.30;93.70;;;;;;4968434;28;20046;-69
2022/01/30 06:55:09;;;;;;;1.00;0.90;;;8.70;93.00;;;;;;4970687;28;20113;-69
2022/01/30 06:57:40;;;;;;;1.30;0.90;;;8.80;91.90;;;;;;4968256;28;20018;-69
2022/01/30 07:00:07;;;;;;;1.38;0.80;;;8.50;92.10;;;;;;4967691;28;20276;-69
2022/01/30 07:02:33;;;;;;;2.78;1.00;;;8.30;93.10;;;;;;4967239;28;20052;-69
2022/01/30 07:04:58;;;;;;;3.97;1.10;;;8.30;93.00;;;;;;4968568;28;20030;-69
2022/01/30 07:07:25;;;;;;;4.53;1.10;;;8.70;93.20;;;;;;4962869;28;20041;-69
2022/01/30 07:09:51;;;;;;;2.25;1.00;;;9.30;91.00;;;;;;4970096;28;20038;-70
2022/01/30 07:12:16;;;;;;;2.23;0.87;;;10.10;86.30;;;;;;4961612;28;20510;-69
2022/01/30 07:14:42;;;;;;;2.40;0.80;;;10.80;83.50;;;;;;4971624;28;20069;-69
2022/01/30 07:17:08;;;;;;;3.43;1.00;;;11.00;78.80;;;;;;4966850;28;20035;-70
2022/01/30 07:19:33;;;;;;;2.40;1.57;;;10.70;79.00;;;;;;4966028;28;20404;-69
2022/01/30 07:21:59;;;;;;;4.00;0.93;;;10.30;79.60;;;;;;4970569;28;20031;-69
2022/01/30 07:24:25;;;;;;;3.87;0.83;;;9.90;81.50;;;;;;4968855;28;20030;-69
2022/01/30 07:26:50;;;;;;;5.67;1.00;;;9.50;82.30;;;;;;4972406;28;20460;-68
2022/01/30 07:29:16;;;;;;;0.93;0.87;;;9.10;84.50;;;;;;4968981;28;20052;-70
2022/01/30 07:31:42;;;;;;;7.13;1.58;;;8.80;85.10;;;;;;4974093;28;20030;-72
2022/01/30 07:34:08;;;;;;;6.97;1.30;;;8.80;93.50;;;;;;4965642;28;20041;-69
2022/01/30 07:36:35;;;;;;;3.20;1.10;;;8.90;91.80;;;;;;4972181;28;20026;-68
2022/01/30 07:39:05;;;;;;;3.45;0.70;;;10.20;82.60;;;;;;4974334;28;20570;-69
2022/01/30 07:41:31;;;;;;;2.53;0.95;;;11.90;75.00;;;;;;4968394;28;20029;-69
2022/01/30 07:43:57;;;;;;;4.63;1.17;;;13.40;59.00;;;;;;4964777;28;20527;-69
2022/01/30 07:46:23;;;;;;;4.30;1.03;;;14.50;52.80;;;;;;4968452;28;20022;-69
2022/01/30 07:48:48;;;;;;;2.47;0.88;;;14.90;49.50;;;;;;4967920;28;20957;-68
2022/01/30 07:51:14;;;;;;;4.07;1.15;;;14.40;49.20;;;;;;4965154;28;20026;-68
2022/01/30 07:53:40;;;;;;;3.45;1.00;;;14.40;49.10;;;;;;4964713;28;20018;-68
2022/01/30 07:56:06;;;;;;;1.67;0.80;;;14.60;48.30;;;;;;4966157;28;20694;-68
2022/01/30 07:58:31;;;;;;;1.73;0.73;;;14.90;48.40;;;;;;4971308;28;20356;-68
2022/01/30 08:00:57;;;;;;;1.98;1.25;;;15.20;46.50;;;;;;4971878;28;20117;-69
2022/01/30 08:03:23;;;;;;;3.70;1.27;;;14.90;46.10;;;;;;4961108;28;20037;-69
2022/01/30 08:05:48;;;;;;;1.87;0.90;;;14.70;48.30;;;;;;4966445;28;20029;-70
2022/01/30 08:08:14;;;;;;;2.00;0.80;;;14.70;46.80;;;;;;4968355;28;20076;-70
2022/01/30 08:10:40;;;;;;;3.63;1.10;;;15.10;46.10;;;;;;4966793;28;20412;-69
2022/01/30 08:13:06;;;;;;;2.72;0.80;;;15.10;44.50;;;;;;4966997;28;20526;-69
2022/01/30 08:15:32;;;;;;;4.60;1.10;;;14.30;45.40;;;;;;4965124;28;20034;-69
2022/01/30 08:17:57;;;;;;;2.22;1.20;;;14.00;45.90;;;;;;4966920;28;20093;-69
2022/01/30 08:20:26;;;;;;;3.13;1.00;;;13.50;46.50;;;;;;4965032;28;20591;-69
2022/01/30 08:22:53;;;;;;;3.00;1.10;;;12.50;47.80;;;;;;4966646;28;20609;-69
2022/01/30 08:25:20;;;;;;;3.95;1.23;;;11.70;49.20;;;;;;4966993;28;20027;-69
2022/01/30 08:27:46;;;;;;;1.80;0.90;;;10.90;50.60;;;;;;4965101;28;20019;-69
2022/01/30 08:30:12;;;;;;;3.88;1.00;;;10.70;51.80;;;;;;4964877;28;20022;-69
2022/01/30 08:32:42;;;;;;;4.13;1.30;;;11.40;50.30;;;;;;4963866;28;20145;-69
2022/01/30 08:35:10;;;;;;;7.90;1.48;;;12.30;48.20;;;;;;4966456;28;20050;-69
2022/01/30 08:37:36;;;;;;;2.08;0.90;;;12.90;46.80;;;;;;4969942;28;20030;-69
2022/01/30 08:40:12;;;;;;;5.30;1.20;;;14.00;44.90;;;;;;4963603;28;20130;-69
2022/01/30 08:42:38;;;;;;;2.20;0.90;;;15.20;42.50;;;;;;4964047;28;20034;-70
2022/01/30 08:45:05;;;;;;;;;;;15.90;40.10;;;;;;4965492;28;20050;-69
2022/01/30 08:47:31;;;;;;;3.55;1.52;;;16.70;40.70;;;;;;4970063;28;19910;-69
2022/01/30 08:49:56;;;;;;;7.28;1.60;;;17.60;36.90;;;;;;4960470;28;21195;-69
2022/01/30 08:52:23;;;;;;;4.13;1.15;;;18.70;35.30;;;;;;4968563;28;20165;-69
2022/01/30 08:54:50;;;;;;;2.78;1.23;;;19.20;33.90;;;;;;4962690;28;20404;-69
2022/01/30 08:57:15;;;;;;;5.63;1.20;;;19.50;34.20;;;;;;4968560;28;20034;-68
2022/01/30 08:59:42;;;;;;;5.90;0.98;;;20.40;32.30;;;;;;4967632;28;20049;-69
2022/01/30 09:02:08;;;;;;;3.78;1.30;;;20.60;31.60;;;;;;4970156;28;20081;-69
2022/01/30 09:04:34;;;;;;;3.90;1.20;;;20.20;31.70;;;;;;4968686;28;20045;-69
2022/01/30 09:06:59;;;;;;;2.67;0.82;;;20.10;31.20;;;;;;4967939;28;20030;-70
2022/01/30 09:09:25;;;;;;;3.90;1.20;;;19.90;31.80;;;;;;4970135;28;20029;-69
2022/01/30 09:11:51;;;;;;;4.18;1.38;;;19.80;31.20;;;;;;4960991;28;20096;-69
2022/01/30 09:14:17;;;;;;;5.15;1.48;;;19.00;32.30;;;;;;4971860;28;20031;-69
2022/01/30 09:16:45;;;;;;;4.80;1.30;;;18.10;32.90;;;;;;4968597;28;20046;-69
2022/01/30 09:19:11;;;;;;;4.57;1.48;;;17.20;34.10;;;;;;4970550;28;20026;-69
2022/01/30 09:21:37;;;;;;;2.67;1.02;;;16.90;33.90;;;;;;4968931;28;20023;-69
2022/01/30 09:24:03;;;;;;;2.55;0.95;;;16.90;33.90;;;;;;4958357;28;20485;-70
2022/01/30 09:26:29;;;;;;;1.55;0.90;;;17.10;33.30;;;;;;4971147;28;20022;-69
2022/01/30 09:28:55;;;;;;;3.78;1.60;;;17.30;33.00;;;;;;4965712;28;21447;-73
2022/01/30 09:31:21;;;;;;;2.97;1.17;;;16.90;33.30;;;;;;4970725;28;20680;-69
2022/01/30 09:33:47;;;;;;;1.13;0.70;;;16.30;33.90;;;;;;4966180;28;20018;-69
2022/01/30 09:36:14;;;;;;;3.22;1.15;;;15.20;35.10;;;;;;4970323;28;20395;-69
2022/01/30 09:38:40;;;;;;;5.22;1.52;;;14.90;35.90;;;;;;4968534;28;20050;-69
2022/01/30 09:41:07;;;;;;;;;;;14.40;36.70;;;;;;4965215;28;20023;-69
2022/01/30 09:43:33;;;;;;;6.82;1.40;;;14.00;37.90;;;;;;4965778;28;19913;-68
2022/01/30 09:46:00;;;;;;;2.80;1.00;;;13.60;38.80;;;;;;4971004;28;20038;-69
2022/01/30 09:48:25;;;;;;;4.40;1.65;;;14.10;38.80;;;;;;4968538;28;20080;-69
2022/01/30 09:50:54;;;;;;;3.40;1.20;;;14.60;37.90;;;;;;4966485;28;20540;-69
2022/01/30 09:53:20;;;;;;;3.22;1.50;;;14.10;38.30;;;;;;4966980;28;20042;-68
2022/01/30 09:55:46;;;;;;;2.10;1.33;;;13.50;40.30;;;;;;4966453;28;20019;-68
2022/01/30 09:58:11;;;;;;;3.58;1.40;;;13.20;40.60;;;;;;4970570;28;20050;-69
2022/01/30 10:00:37;;;;;;;6.07;0.98;;;13.10;39.90;;;;;;4966330;28;20026;-68
2022/01/30 10:03:03;;;;;;;5.28;1.38;;;13.10;39.40;;;;;;4971197;28;20041;-69
2022/01/30 10:05:33;;;;;;;4.57;1.50;;;13.00;39.10;;;;;;4962591;28;20129;-68
2022/01/30 10:08:00;;;;;;;2.85;1.02;;;12.80;40.00;;;;;;4966840;28;20018;-69
2022/01/30 10:10:28;;;;;;;3.22;1.35;;;12.60;40.90;;;;;;4961758;28;20031;-69
2022/01/30 10:13:07;;;;;;;6.40;1.60;;;12.40;40.80;;;;;;4968701;28;20082;-68
2022/01/30 10:15:55;;;;;;;2.88;1.25;;;12.00;41.60;;;;;;4961619;28;20022;-68
2022/01/30 10:18:22;;;;;;;5.63;1.60;;;11.60;42.20;;;;;;4963452;28;20033;-69
2022/01/30 10:20:48;;;;;;;;;;;11.30;42.70;;;;;;4969314;28;20963;-68
2022/01/30 10:23:14;;;;;;;10.32;2.08;;;10.90;43.10;;;;;;4960883;28;20416;-69
2022/01/30 10:25:53;;;;;;;3.00;1.20;;;10.70;45.10;;;;;;4970594;28;20014;-69
2022/01/30 10:28:31;;;;;;;2.05;0.82;;;10.60;44.70;;;;;;4963800;28;20044;-72
2022/01/30 10:31:08;;;;;;;4.60;1.35;;;10.50;44.50;;;;;;4969120;28;20030;-68
2022/01/30 10:33:39;;;;;;;3.28;1.08;;;10.30;45.50;;;;;;4964609;28;20027;-70
2022/01/30 10:36:08;;;;;;;4.25;1.33;;;10.10;47.60;;;;;;4966681;28;20097;-68
2022/01/30 10:38:39;;;;;;;2.38;0.88;;;10.20;45.90;;;;;;4961788;28;20768;-70
2022/01/30 10:41:31;;;;;;;4.78;1.30;;;10.00;46.00;;;;;;4967891;28;20030;-74
2022/01/30 10:44:08;;;;;;;4.90;1.10;;;9.80;46.80;;;;;;4965574;28;20026;-68
2022/01/30 10:46:45;;;;;;;3.60;1.17;;;9.90;46.70;;;;;;4962481;28;20820;-69
2022/01/30 10:49:11;;;;;;;5.68;1.08;;;10.00;45.90;;;;;;4967549;28;20049;-72
2022/01/30 10:52:00;;;;;;;2.15;1.23;;;10.00;48.80;;;;;;4966371;28;20031;-72
2022/01/30 10:54:32;;;;;;;2.88;1.20;;;10.10;49.20;;;;;;4970517;28;20075;-69
2022/01/30 10:57:06;;;;;;;4.07;1.35;;;10.30;44.70;;;;;;4962670;28;21482;-69
2022/01/30 10:59:33;;;;;;;2.55;0.77;;;10.20;44.30;;;;;;4971414;28;20030;-70
2022/01/30 11:02:14;;;;;;;5.32;1.48;;;10.00;44.80;;;;;;4971964;28;20034;-69
2022/01/30 11:04:40;;;;;;;4.15;1.00;;;10.00;45.60;;;;;;4973799;28;20014;-69
2022/01/30 11:07:07;;;;;;;4.05;0.82;;;10.00;45.20;;;;;;4965597;28;20651;-69
2022/01/30 11:09:47;;;;;;;2.38;0.93;;;10.00;45.20;;;;;;4969592;28;20110;-68
2022/01/30 11:12:17;;;;;;;2.92;0.82;;;10.00;44.80;;;;;;4969260;28;20111;-69
2022/01/30 11:17:16;;;;;;;4.32;1.23;;;9.80;45.80;;;;;;4970194;28;20364;-70
2022/01/30 11:19:51;;;;;;;1.50;0.80;;;9.90;46.20;;;;;;4966090;28;20043;-68
2022/01/30 11:22:19;;;;;;;4.75;1.50;;;10.20;45.40;;;;;;4968730;28;20372;-68
2022/01/30 11:24:54;;;;;;;3.78;1.10;;;10.10;45.90;;;;;;4968769;28;21470;-69
2022/01/30 11:27:22;;;;;;;2.58;0.80;;;10.10;45.70;;;;;;4967041;28;20648;-69
2022/01/30 11:29:51;;;;;;;2.92;1.42;;;9.90;46.00;;;;;;4971422;28;20125;-68
2022/01/30 11:32:20;;;;;;;1.67;0.82;;;9.90;46.40;;;;;;4964821;28;20023;-68
2022/01/30 11:34:45;;;;;;;1.95;0.73;;;9.90;46.40;;;;;;4972462;28;20181;-68
2022/01/30 11:37:14;;;;;;;3.90;1.17;;;10.10;46.00;;;;;;4966634;28;20121;-69
2022/01/30 11:39:52;;;;;;;3.83;1.15;;;10.10;45.40;;;;;;4968598;28;20273;-71
2022/01/30 11:42:26;;;;;;;3.30;1.13;;;10.00;48.60;;;;;;4966984;28;20625;-70
2022/01/30 11:45:04;;;;;;;1.35;0.80;;;10.30;47.10;;;;;;4987704;28;20027;-70
2022/01/30 11:47:45;;;;;;;3.90;1.00;;;10.50;47.20;;;;;;4963855;28;20556;-70
2022/01/30 11:50:12;;;;;;;2.30;0.77;;;10.70;46.50;;;;;;4974090;28;20022;-69
2022/01/30 11:53:11;;;;;;;4.63;1.05;;;10.70;46.90;;;;;;4964075;28;20024;-69
2022/01/30 11:56:00;;;;;;;4.13;1.05;;;10.40;44.80;;;;;;4961286;28;20023;-69
2022/01/30 11:58:38;;;;;;;2.50;1.08;;;10.30;45.80;;;;;;4967474;28;20039;-70
2022/01/30 12:01:34;;;;;;;1.10;0.75;;;10.10;46.30;;;;;;4964758;28;20018;-67
2022/01/30 12:04:06;;;;;;;2.58;1.02;;;9.90;46.60;;;;;;4964717;28;20023;-67
2022/01/30 12:06:34;;;;;;;3.42;1.02;;;9.70;47.50;;;;;;4963429;28;20056;-67
2022/01/30 12:09:16;;;;;;;2.58;1.10;;;9.60;47.60;;;;;;4968623;28;20027;-68
2022/01/30 12:11:47;;;;;;;2.40;0.80;;;9.60;47.70;;;;;;4963917;28;20027;-67
2022/01/30 12:14:38;;;;;;;4.53;1.17;;;9.50;47.90;;;;;;4968821;28;20692;-67
2022/01/30 12:17:04;;;;;;;3.45;1.08;;;9.40;48.60;;;;;;4961211;28;20047;-67
2022/01/30 12:19:42;;;;;;;5.83;1.17;;;9.30;48.60;;;;;;4966271;28;20096;-67
2022/01/30 12:22:20;;;;;;;3.72;1.10;;;9.20;49.10;;;;;;4962751;28;20061;-67
2022/01/30 12:24:48;;;;;;;3.47;1.10;;;9.10;49.30;;;;;;4969561;28;20511;-67
2022/01/30 12:27:14;;;;;;;4.55;1.02;;;9.00;49.10;;;;;;4964646;28;20027;-67
2022/01/30 12:29:51;;;;;;;2.15;1.23;;;9.00;49.20;;;;;;4973149;28;20029;-68
2022/01/30 12:32:22;;;;;;;2.25;0.93;;;9.20;48.70;;;;;;4968876;28;20027;-68
2022/01/30 12:35:01;;;;;;;3.40;1.10;;;9.30;49.20;;;;;;4970901;28;20761;-67
2022/01/30 12:37:29;;;;;;;3.47;1.02;;;9.40;48.60;;;;;;4971873;28;20057;-68
2022/01/30 12:39:56;;;;;;;3.33;0.93;;;9.40;48.60;;;;;;4963589;28;20027;-67
2022/01/30 12:42:23;;;;;;;4.20;0.90;;;9.30;48.40;;;;;;4965811;28;20058;-67
2022/01/30 12:44:50;;;;;;;3.55;1.10;;;9.30;48.60;;;;;;4964730;28;20022;-68
2022/01/30 12:47:16;;;;;;;4.85;0.98;;;9.20;48.70;;;;;;4969222;28;20054;-67
2022/01/30 12:49:48;;;;;;;3.60;1.25;;;9.00;49.20;;;;;;4968478;28;20096;-70
2022/01/30 12:54:59;;;;;;;2.88;1.33;;;8.90;49.50;;;;;;4964166;28;21601;-69
2022/01/30 12:57:26;;;;;;;7.40;1.13;;;8.80;49.80;;;;;;4968347;28;20030;-71
2022/01/30 12:59:53;;;;;;;7.03;1.45;;;8.70;49.80;;;;;;4962510;28;20070;-69
2022/01/30 13:02:20;;;;;;;4.43;1.63;;;8.60;50.10;;;;;;4969012;28;20042;-69
2022/01/30 13:04:46;;;;;;;;;;;8.60;51.10;;;;;;4968809;28;20025;-69
2022/01/30 13:07:13;;;;;;;2.15;0.85;;;8.50;51.60;;;;;;4969522;28;20558;-68
2022/01/30 13:09:39;;;;;;;4.05;1.08;;;8.40;51.70;;;;;;4965002;28;20499;-68
2022/01/30 13:12:16;;;;;;;1.38;0.90;;;8.50;51.60;;;;;;4962371;28;20476;-69
2022/01/30 13:14:42;;;;;;;3.25;1.10;;;8.50;50.90;;;;;;4963659;28;20049;-68
2022/01/30 13:17:10;;;;;;;2.65;0.75;;;8.50;50.80;;;;;;4965941;28;20022;-69
2022/01/30 13:19:42;;;;;;;3.97;1.20;;;8.50;51.20;;;;;;4965355;28;20037;-70
2022/01/30 13:22:23;;;;;;;2.20;1.08;;;8.50;51.10;;;;;;4963954;28;20439;-71
2022/01/30 13:24:56;;;;;;;3.15;1.10;;;8.50;52.10;;;;;;4969194;28;20416;-68
2022/01/30 13:27:21;;;;;;;4.30;1.60;;;8.50;52.40;;;;;;4964722;28;20025;-67
2022/01/30 13:29:47;;;;;;;4.07;1.13;;;8.50;53.20;;;;;;4967902;28;20019;-69
2022/01/30 13:32:13;;;;;;;3.47;0.97;;;8.50;53.20;;;;;;4964501;28;20030;-68
2022/01/30 13:34:40;;;;;;;4.33;1.97;;;8.40;52.70;;;;;;4962517;28;20081;-68
2022/01/30 13:37:10;;;;;;;3.70;1.20;;;8.50;52.30;;;;;;4961179;28;20019;-68
2022/01/30 13:39:44;;;;;;;3.95;1.50;;;8.40;52.50;;;;;;4965777;28;20039;-68
2022/01/30 13:46:54;;;;;;;3.58;1.17;;;8.30;52.20;;;;;;4960391;28;20056;-72
2022/01/30 13:47:50;;;;;;;3.35;1.48;;;8.20;53.30;;;;;;4963692;28;20131;-69
2022/01/30 13:50:18;;;;;;;2.93;1.10;;;8.20;53.60;;;;;;4962220;28;20024;-68
2022/01/30 13:52:44;;;;;;;5.60;1.17;;;8.10;54.00;;;;;;4961638;28;20395;-67
2022/01/30 13:55:10;;;;;;;4.43;1.13;;;8.20;53.90;;;;;;4959197;28;20030;-68
2022/01/30 13:57:38;;;;;;;3.40;0.93;;;8.20;53.90;;;;;;4961673;28;20030;-68
2022/01/30 14:00:12;;;;;;;4.13;1.60;;;8.20;54.00;;;;;;4960316;28;20022;-68
2022/01/30 14:02:54;;;;;;;2.53;1.17;;;8.20;53.70;;;;;;4966587;28;20025;-69
2022/01/30 14:05:23;;;;;;;3.50;1.27;;;8.20;53.90;;;;;;4963358;28;20023;-68